Hulshout, Belgium
Current Conditions -  °F | °C
As of 6:25 PM on Wednesday 26 Nov 2014 (Local Time) from EBDT Reporting Station
Overcast Overcast  
Wind Chill: 42°   Ceiling: 1100
Heat Index: 45°   Visibility: 2.1mi
Dew Point: 43°   Wind: 5mph
Humidity: 93%   Direction: 110°ESE
Pressure: 29.85"   Gusts: NA
Location:  51.07°N, 4.79°E
Report Text: EBDT 261725Z AUTO 11004KT 3400 OVC011/// 07/06 Q1011 YLO
Loading
Personal Weather Stations






























Interactive Weather Map New forecast layout! Learn more

10-Day Weather Forecast

Advertisements
Track Severe Weather on mobile